Time;durP1;ratioP1;P1;durP2;ratioP2;P2;SDS_P1;SDS_P2;PMS_P1;PMS_P2;Temp;Humidity;BMP_temperature;BMP_pressure;BME280_temperature;BME280_humidity;BME280_pressure;Samples;Min_cycle;Max_cycle;Signal;HPM_P1;HPM_P2
2022/06/10 00:01:38;;;;;;;4.33;2.20;;;13.30;66.10;;;;;;4971472;28;20676;-75
2022/06/10 00:04:03;;;;;;;2.90;2.10;;;13.30;71.10;;;;;;4970492;28;20200;-75
2022/06/10 00:06:29;;;;;;;3.10;2.13;;;13.30;70.80;;;;;;4971124;28;20565;-75
2022/06/10 00:08:54;;;;;;;2.73;2.10;;;13.30;68.60;;;;;;4970746;28;20200;-75
2022/06/10 00:11:20;;;;;;;2.93;2.40;;;13.40;68.00;;;;;;4969367;28;20661;-74
2022/06/10 00:13:47;;;;;;;5.80;2.60;;;13.40;66.20;;;;;;4971337;28;20239;-74
2022/06/10 00:16:15;;;;;;;4.17;2.23;;;13.40;67.20;;;;;;4963245;28;20192;-73
2022/06/10 00:18:41;;;;;;;4.90;2.30;;;13.40;69.20;;;;;;4970482;28;20486;-74
2022/06/10 00:21:09;;;;;;;2.80;2.30;;;13.30;72.20;;;;;;4970424;28;20408;-74
2022/06/10 00:23:35;;;;;;;4.27;2.10;;;13.30;70.10;;;;;;4970218;28;20478;-74
2022/06/10 00:26:00;;;;;;;5.10;2.37;;;13.20;69.50;;;;;;4971181;28;20435;-73
2022/06/10 00:28:26;;;;;;;4.33;2.47;;;13.10;70.40;;;;;;4969670;28;20271;-74
2022/06/10 00:30:52;;;;;;;5.10;2.23;;;13.00;73.10;;;;;;4970993;28;20518;-75
2022/06/10 00:33:17;;;;;;;3.57;2.20;;;12.90;76.80;;;;;;4968541;28;20176;-75
2022/06/10 00:35:43;;;;;;;2.67;2.10;;;12.80;80.60;;;;;;4970370;28;20706;-75
2022/06/10 00:38:09;;;;;;;3.27;2.33;;;12.80;83.20;;;;;;4970513;28;20520;-73
2022/06/10 00:40:39;;;;;;;6.43;2.20;;;12.80;82.00;;;;;;4971039;28;20221;-74
2022/06/10 00:43:06;;;;;;;4.10;2.30;;;12.80;82.50;;;;;;4967594;28;20454;-75
2022/06/10 00:46:19;;;;;;;4.50;2.67;;;12.80;86.10;;;;;;4978384;28;20777;-75
2022/06/10 00:48:55;;;;;;;3.10;2.10;;;12.80;87.30;;;;;;4924302;28;20519;-75
2022/06/10 00:51:31;;;;;;;5.37;2.50;;;12.80;86.70;;;;;;4949145;29;20514;-73
2022/06/10 00:54:14;;;;;;;3.70;2.30;;;12.70;90.60;;;;;;4950975;28;20494;-74
2022/06/10 00:56:43;;;;;;;4.37;2.50;;;12.80;90.60;;;;;;4958250;28;20447;-73
2022/06/10 00:59:20;;;;;;;4.20;2.33;;;12.80;91.20;;;;;;4966999;28;20434;-75
2022/06/10 01:01:46;;;;;;;5.30;3.00;;;12.80;91.00;;;;;;4968373;28;20415;-74
2022/06/10 01:04:12;;;;;;;4.80;2.60;;;12.70;91.30;;;;;;4957845;28;20862;-76
2022/06/10 01:06:38;;;;;;;4.10;2.57;;;12.60;91.90;;;;;;4951164;28;20204;-75
2022/06/10 01:09:04;;;;;;;5.17;2.90;;;12.50;93.50;;;;;;4950763;28;20280;-75
2022/06/10 01:12:08;;;;;;;2.57;2.30;;;12.50;93.90;;;;;;4950702;29;20408;-74
2022/06/10 01:14:57;;;;;;;11.33;2.70;;;12.50;95.60;;;;;;4962308;28;20416;-75
2022/06/10 01:17:23;;;;;;;3.70;2.40;;;12.50;95.90;;;;;;4965081;28;20435;-75
2022/06/10 01:20:02;;;;;;;4.30;2.70;;;12.50;95.20;;;;;;4969807;28;20477;-75
2022/06/10 01:22:49;;;;;;;3.20;2.43;;;12.60;95.70;;;;;;4969252;28;20176;-74
2022/06/10 01:25:36;;;;;;;5.27;2.90;;;12.60;96.80;;;;;;4970211;28;20403;-74
2022/06/10 01:28:05;;;;;;;4.30;2.40;;;12.60;95.50;;;;;;4964650;28;20438;-74
2022/06/10 01:30:52;;;;;;;2.53;2.33;;;12.60;94.30;;;;;;4968863;28;20463;-73
2022/06/10 01:33:38;;;;;;;4.67;2.30;;;12.60;94.10;;;;;;4969340;28;20426;-74
2022/06/10 01:36:24;;;;;;;3.03;2.33;;;12.50;93.90;;;;;;4967712;28;20457;-75
2022/06/10 01:39:02;;;;;;;5.23;2.60;;;12.40;95.00;;;;;;4968391;28;20574;-74
2022/06/10 01:41:38;;;;;;;5.23;2.33;;;12.40;97.00;;;;;;4969964;28;20845;-75
2022/06/10 01:44:33;;;;;;;4.03;2.50;;;12.30;98.70;;;;;;4969733;28;20434;-74
2022/06/10 01:47:19;;;;;;;4.70;2.77;;;12.30;99.10;;;;;;4958156;28;20443;-74
2022/06/10 01:50:19;;;;;;;3.30;2.60;;;12.30;99.60;;;;;;4968782;28;20785;-74
2022/06/10 01:53:05;;;;;;;4.13;2.33;;;12.30;99.90;;;;;;4966893;28;20431;-73
2022/06/10 01:55:45;;;;;;;3.40;2.60;;;12.30;99.90;;;;;;4970082;28;20407;-75
2022/06/10 01:58:37;;;;;;;3.93;2.37;;;12.20;99.90;;;;;;4969941;28;20463;-75
2022/06/10 02:01:22;;;;;;;4.10;2.90;;;12.20;99.90;;;;;;4969534;28;20399;-74
2022/06/10 02:03:56;;;;;;;3.43;2.57;;;12.20;99.90;;;;;;4969938;28;20442;-75
2022/06/10 02:06:33;;;;;;;2.70;2.23;;;12.10;99.90;;;;;;4969213;28;20470;-73
2022/06/10 02:09:10;;;;;;;3.43;2.50;;;12.10;99.90;;;;;;4969012;28;20487;-74
2022/06/10 02:11:40;;;;;;;3.00;2.30;;;12.10;99.90;;;;;;4967876;28;20905;-75
2022/06/10 02:14:26;;;;;;;4.00;2.60;;;12.10;99.90;;;;;;4969758;28;20593;-75
2022/06/10 02:16:55;;;;;;;2.97;2.30;;;12.10;99.90;;;;;;4961710;28;20597;-75
2022/06/10 02:19:35;;;;;;;5.80;2.80;;;12.10;99.90;;;;;;4967119;28;20491;-75
2022/06/10 02:22:12;;;;;;;6.00;2.90;;;12.10;99.90;;;;;;4969182;28;20514;-74
2022/06/10 02:24:39;;;;;;;3.90;2.80;;;12.10;99.90;;;;;;4969729;28;20407;-74
2022/06/10 02:27:11;;;;;;;6.03;2.93;;;12.10;99.90;;;;;;4967978;28;20539;-75
2022/06/10 02:29:44;;;;;;;5.17;3.33;;;12.10;99.90;;;;;;4969692;28;20454;-75
2022/06/10 02:32:10;;;;;;;6.33;3.20;;;12.20;99.90;;;;;;4966562;28;20400;-74
2022/06/10 02:34:36;;;;;;;4.13;3.10;;;12.20;99.90;;;;;;4969077;28;20435;-73
2022/06/10 02:37:13;;;;;;;7.90;3.40;;;12.30;99.90;;;;;;4969588;28;20501;-75
2022/06/10 02:40:14;;;;;;;4.80;3.10;;;12.40;99.90;;;;;;4969784;28;20555;-75
2022/06/10 02:43:22;;;;;;;7.47;3.33;;;12.50;99.90;;;;;;4956403;28;20968;-74
2022/06/10 02:46:00;;;;;;;8.90;3.50;;;12.50;99.90;;;;;;4974123;28;20593;-74
2022/06/10 02:48:42;;;;;;;8.43;3.50;;;12.60;99.90;;;;;;4952779;29;20426;-75
2022/06/10 02:51:08;;;;;;;6.30;3.70;;;12.60;99.90;;;;;;4952983;29;20463;-74
2022/06/10 02:53:34;;;;;;;5.30;3.10;;;12.60;99.90;;;;;;4951870;28;20416;-75
2022/06/10 02:56:00;;;;;;;7.33;3.30;;;12.70;99.90;;;;;;4954148;29;20201;-75
2022/06/10 03:01:24;;;;;;;3.63;2.90;;;12.70;99.90;;;;;;4953679;29;20890;-73
2022/06/10 03:03:56;;;;;;;3.63;2.80;;;12.70;99.90;;;;;;4952771;29;20441;-75
2022/06/10 03:06:51;;;;;;;4.10;2.60;;;12.70;99.90;;;;;;4953440;28;20428;-75
2022/06/10 03:09:37;;;;;;;5.03;2.50;;;12.60;99.90;;;;;;4953115;29;20490;-74
2022/06/10 03:12:35;;;;;;;6.13;3.20;;;12.50;99.90;;;;;;4953010;29;20396;-75
2022/06/10 03:15:10;;;;;;;6.47;2.87;;;12.50;99.90;;;;;;4964711;28;20408;-75
2022/06/10 03:18:05;;;;;;;4.30;3.27;;;12.40;99.90;;;;;;4969656;28;20430;-74
2022/06/10 03:20:49;;;;;;;3.37;2.70;;;12.40;99.90;;;;;;4936253;28;20786;-75
2022/06/10 03:23:37;;;;;;;3.63;2.60;;;12.40;99.90;;;;;;4971690;28;20932;-74
2022/06/10 03:26:27;;;;;;;3.80;2.57;;;12.50;99.90;;;;;;4972688;28;20858;-75
2022/06/10 03:29:20;;;;;;;4.13;2.60;;;12.50;99.90;;;;;;4972182;28;20461;-75
2022/06/10 03:31:51;;;;;;;3.87;2.77;;;12.50;99.90;;;;;;4971821;28;20466;-74
2022/06/10 03:34:35;;;;;;;4.50;2.70;;;12.40;99.90;;;;;;4971057;28;20908;-75
2022/06/10 03:37:03;;;;;;;9.40;3.10;;;12.50;99.90;;;;;;4972594;28;20419;-75
2022/06/10 03:39:29;;;;;;;4.93;2.90;;;12.50;99.90;;;;;;4972391;28;20408;-75
2022/06/10 03:42:12;;;;;;;6.10;2.80;;;12.40;99.90;;;;;;4972009;28;20935;-75
2022/06/10 03:44:38;;;;;;;4.37;3.30;;;12.40;99.90;;;;;;4971726;28;20415;-75
2022/06/10 03:47:07;;;;;;;4.30;3.10;;;12.40;99.90;;;;;;4964618;28;20543;-74
2022/06/10 03:49:46;;;;;;;4.57;3.40;;;12.40;99.90;;;;;;4971473;28;20307;-75
2022/06/10 03:52:19;;;;;;;3.47;3.17;;;12.40;99.90;;;;;;4971257;28;20438;-75
2022/06/10 03:54:45;;;;;;;5.77;3.23;;;12.40;99.90;;;;;;4971917;28;20558;-75
2022/06/10 03:57:10;;;;;;;8.70;3.80;;;12.40;99.90;;;;;;4972326;28;20996;-74
2022/06/10 03:59:36;;;;;;;5.80;3.33;;;12.40;99.90;;;;;;4971534;28;20237;-73
2022/06/10 04:02:02;;;;;;;5.20;3.60;;;12.40;99.90;;;;;;4971378;28;20250;-75
2022/06/10 04:04:27;;;;;;;8.73;3.47;;;12.50;99.90;;;;;;4971249;28;20690;-74
2022/06/10 04:06:53;;;;;;;3.87;3.47;;;12.50;99.90;;;;;;4973443;28;20211;-75
2022/06/10 04:09:18;;;;;;;6.73;3.83;;;12.50;99.90;;;;;;4971397;28;20556;-74
2022/06/10 04:11:44;;;;;;;7.90;3.77;;;12.60;99.90;;;;;;4969788;28;20183;-74
2022/06/10 04:14:09;;;;;;;5.63;3.27;;;12.70;99.90;;;;;;4971815;28;20254;-74
2022/06/10 04:16:35;;;;;;;5.30;3.33;;;12.80;99.90;;;;;;4963652;28;20192;-74
2022/06/10 04:19:01;;;;;;;8.20;3.77;;;12.80;99.90;;;;;;4969523;28;20186;-75
2022/06/10 04:21:26;;;;;;;4.77;2.83;;;12.90;99.90;;;;;;4969442;28;20310;-75
2022/06/10 04:23:52;;;;;;;7.50;3.43;;;13.00;99.90;;;;;;4971057;28;20172;-75
2022/06/10 04:26:17;;;;;;;4.57;3.60;;;13.10;99.90;;;;;;4971287;28;20192;-75
2022/06/10 04:28:43;;;;;;;7.47;3.53;;;13.10;99.90;;;;;;4971627;28;20558;-74
2022/06/10 04:31:09;;;;;;;9.23;3.67;;;13.20;99.90;;;;;;4970925;28;20592;-74
2022/06/10 04:33:35;;;;;;;6.97;3.47;;;13.60;99.90;;;;;;4970487;28;20176;-75
2022/06/10 04:36:01;;;;;;;4.80;3.40;;;13.30;99.90;;;;;;4968890;28;20267;-75
2022/06/10 04:38:27;;;;;;;9.37;4.27;;;13.40;99.90;;;;;;4970850;28;20438;-75
2022/06/10 04:40:53;;;;;;;8.67;3.67;;;13.50;99.90;;;;;;4970852;28;20239;-74
2022/06/10 04:43:19;;;;;;;9.17;3.77;;;13.60;99.90;;;;;;4968310;28;20176;-75
2022/06/10 04:45:48;;;;;;;7.93;3.60;;;13.70;99.90;;;;;;4977634;28;20586;-75
2022/06/10 04:48:14;;;;;;;8.40;4.50;;;13.80;99.90;;;;;;4950968;29;20411;-75
2022/06/10 04:50:41;;;;;;;6.47;4.20;;;13.80;99.90;;;;;;4951288;28;20451;-75
2022/06/10 04:53:07;;;;;;;6.70;3.87;;;13.90;99.90;;;;;;4950594;29;20412;-75
2022/06/10 04:55:34;;;;;;;6.47;3.67;;;14.00;99.90;;;;;;4951608;28;20930;-75
2022/06/10 04:57:59;;;;;;;7.53;3.80;;;14.10;99.90;;;;;;4950143;28;20172;-75
2022/06/10 05:00:32;;;;;;;9.93;3.60;;;14.10;99.90;;;;;;4952107;29;20416;-75
2022/06/10 05:02:58;;;;;;;7.00;3.87;;;14.20;99.90;;;;;;4948541;29;20227;-73
2022/06/10 05:05:25;;;;;;;7.83;3.77;;;14.20;99.90;;;;;;4949766;29;20522;-75
2022/06/10 05:07:52;;;;;;;7.77;3.90;;;14.40;99.90;;;;;;4949277;28;20482;-75
2022/06/10 05:10:18;;;;;;;7.50;4.07;;;14.40;99.90;;;;;;4951622;28;20456;-75
2022/06/10 05:12:47;;;;;;;11.50;4.57;;;14.50;99.90;;;;;;4950820;28;20177;-75
2022/06/10 05:15:15;;;;;;;6.80;3.90;;;14.50;99.90;;;;;;4962359;28;20432;-75
2022/06/10 05:17:41;;;;;;;7.57;4.10;;;14.60;99.90;;;;;;4967531;28;20439;-75
2022/06/10 05:20:07;;;;;;;9.87;4.10;;;14.70;99.90;;;;;;4968573;28;20451;-75
2022/06/10 05:22:33;;;;;;;14.53;7.27;;;14.70;99.50;;;;;;4969124;28;21096;-75
2022/06/10 05:24:58;;;;;;;6.67;3.83;;;14.80;97.60;;;;;;4970556;28;20412;-75
2022/06/10 05:27:24;;;;;;;9.40;4.00;;;14.80;95.30;;;;;;4969962;28;20280;-75
2022/06/10 05:29:49;;;;;;;6.43;3.73;;;14.90;94.60;;;;;;4970164;28;20207;-75
2022/06/10 05:32:15;;;;;;;6.10;3.90;;;15.00;93.60;;;;;;4967914;28;20172;-75
2022/06/10 05:34:46;;;;;;;8.50;3.70;;;15.00;94.00;;;;;;4969560;28;20172;-73
2022/06/10 05:37:20;;;;;;;8.83;3.53;;;15.00;92.00;;;;;;4968343;28;20670;-75
2022/06/10 05:39:46;;;;;;;6.60;3.67;;;15.00;92.60;;;;;;4970391;28;20423;-75
2022/06/10 05:42:12;;;;;;;10.13;3.70;;;15.10;91.10;;;;;;4969672;28;20423;-74
2022/06/10 05:44:43;;;;;;;12.53;3.73;;;15.10;90.70;;;;;;4968207;28;20194;-74
2022/06/10 05:47:12;;;;;;;12.43;4.47;;;15.20;90.70;;;;;;4962976;28;20821;-75
2022/06/10 05:49:40;;;;;;;7.23;4.37;;;15.20;91.20;;;;;;4969174;28;20455;-75
2022/06/10 05:52:10;;;;;;;6.00;3.50;;;15.30;88.00;;;;;;4969184;28;20901;-75
2022/06/10 05:54:37;;;;;;;7.33;3.67;;;15.30;88.60;;;;;;4970163;28;20498;-74
2022/06/10 05:57:03;;;;;;;5.90;3.57;;;15.30;84.50;;;;;;4970228;28;20450;-73
2022/06/10 05:59:33;;;;;;;9.90;3.70;;;15.40;83.30;;;;;;4968961;28;20427;-75
2022/06/10 06:01:59;;;;;;;8.80;4.07;;;15.40;77.50;;;;;;4969485;28;20575;-74
2022/06/10 06:04:25;;;;;;;5.50;4.20;;;15.40;75.60;;;;;;4968748;28;20478;-75
2022/06/10 06:06:50;;;;;;;11.77;4.03;;;15.40;76.70;;;;;;4969544;28;20459;-73
2022/06/10 06:09:21;;;;;;;6.90;3.77;;;15.40;79.10;;;;;;4969422;28;20566;-75
2022/06/10 06:11:48;;;;;;;11.23;3.90;;;15.60;74.00;;;;;;4969550;28;20172;-75
2022/06/10 06:14:15;;;;;;;6.10;3.67;;;15.60;74.20;;;;;;4972482;28;20415;-73
2022/06/10 06:16:41;;;;;;;7.70;3.70;;;15.60;77.50;;;;;;4960608;28;20530;-74
2022/06/10 06:19:06;;;;;;;13.83;3.87;;;15.80;73.50;;;;;;4969330;28;20415;-75
2022/06/10 06:21:32;;;;;;;8.13;3.60;;;15.80;69.80;;;;;;4970602;28;20430;-74
2022/06/10 06:23:59;;;;;;;4.97;3.70;;;16.00;65.70;;;;;;4973599;28;20198;-73
2022/06/10 06:26:24;;;;;;;9.87;3.80;;;16.10;61.50;;;;;;4972000;28;20508;-74
2022/06/10 06:28:50;;;;;;;5.40;3.70;;;16.20;64.10;;;;;;4974044;28;20578;-76
2022/06/10 06:31:15;;;;;;;8.38;3.78;;;16.30;60.20;;;;;;4972402;28;20880;-75
2022/06/10 06:33:41;;;;;;;8.23;3.50;;;16.50;59.10;;;;;;4973060;28;20164;-76
2022/06/10 06:36:13;;;;;;;6.03;3.80;;;16.60;49.50;;;;;;4973300;28;20215;-75
2022/06/10 06:38:41;;;;;;;8.83;3.87;;;16.60;51.50;;;;;;4973331;28;20168;-76
2022/06/10 06:41:06;;;;;;;7.23;3.80;;;16.60;53.60;;;;;;4973099;28;20411;-75
2022/06/10 06:43:32;;;;;;;7.97;3.73;;;16.70;53.40;;;;;;4970917;28;20481;-75
2022/06/10 06:45:58;;;;;;;8.43;3.73;;;16.90;49.00;;;;;;4978256;28;20189;-75
2022/06/10 06:48:23;;;;;;;6.13;3.90;;;17.10;44.10;;;;;;4953433;28;20169;-73
2022/06/10 06:50:50;;;;;;;5.37;3.50;;;17.20;44.00;;;;;;4953796;28;20204;-74
2022/06/10 06:53:15;;;;;;;8.57;3.70;;;17.20;43.90;;;;;;4952505;29;20172;-74
2022/06/10 06:55:41;;;;;;;7.80;3.77;;;17.20;44.00;;;;;;4953797;28;20416;-75
2022/06/10 06:58:10;;;;;;;5.80;3.80;;;17.40;44.20;;;;;;4953668;28;20566;-75
2022/06/10 07:00:36;;;;;;;5.50;3.80;;;17.50;44.40;;;;;;4952068;29;20183;-74
2022/06/10 07:03:03;;;;;;;8.30;3.87;;;17.60;44.10;;;;;;4952042;28;20420;-74
2022/06/10 07:05:29;;;;;;;10.07;3.80;;;17.70;39.10;;;;;;4953133;28;20259;-75
2022/06/10 07:07:55;;;;;;;9.73;4.13;;;17.80;35.00;;;;;;4951511;29;20523;-75
2022/06/10 07:10:21;;;;;;;6.80;3.60;;;17.80;32.10;;;;;;4953733;29;20275;-75
2022/06/10 07:12:47;;;;;;;10.93;4.43;;;18.00;32.80;;;;;;4951109;29;20187;-74
2022/06/10 07:15:14;;;;;;;7.17;4.13;;;18.20;27.90;;;;;;4964324;28;20408;-75
2022/06/10 07:17:40;;;;;;;6.50;3.80;;;18.30;27.50;;;;;;4969442;28;20435;-75
2022/06/10 07:20:07;;;;;;;9.40;4.17;;;18.50;25.10;;;;;;4972086;28;20422;-75
2022/06/10 07:22:32;;;;;;;11.40;4.17;;;18.50;20.10;;;;;;4971534;28;20184;-75
2022/06/10 07:24:58;;;;;;;4.30;3.77;;;18.50;19.70;;;;;;4971217;28;20415;-75
2022/06/10 07:27:24;;;;;;;6.87;4.00;;;18.60;19.90;;;;;;4972280;28;20227;-74
2022/06/10 07:29:50;;;;;;;11.07;3.37;;;18.80;18.40;;;;;;4972255;28;20626;-74
2022/06/10 07:32:16;;;;;;;9.43;4.43;;;19.00;16.20;;;;;;4971279;28;20573;-76
2022/06/10 07:34:42;;;;;;;12.13;4.00;;;19.10;15.60;;;;;;4971115;28;20499;-76
2022/06/10 07:37:07;;;;;;;6.73;3.70;;;19.30;13.30;;;;;;4972419;28;20514;-75
2022/06/10 07:39:34;;;;;;;5.90;3.87;;;19.30;10.90;;;;;;4972829;28;20180;-76
2022/06/10 07:42:00;;;;;;;6.03;3.63;;;19.50;9.60;;;;;;4972048;28;20256;-75
2022/06/10 07:44:34;;;;;;;6.20;3.77;;;19.70;10.70;;;;;;4972474;28;20920;-76
2022/06/10 07:47:04;;;;;;;7.97;4.30;;;19.90;8.40;;;;;;4964579;28;20480;-77
2022/06/10 07:49:29;;;;;;;7.77;4.00;;;20.30;4.40;;;;;;4971343;28;20451;-76
2022/06/10 07:51:55;;;;;;;6.73;3.53;;;20.40;1.00;;;;;;4971860;28;20948;-75
2022/06/10 07:54:21;;;;;;;7.47;3.33;;;20.50;1.00;;;;;;4971899;28;20208;-75
2022/06/10 07:56:46;;;;;;;11.80;3.67;;;20.70;1.00;;;;;;4972292;28;20188;-76
2022/06/10 07:59:14;;;;;;;7.60;3.60;;;21.00;1.00;;;;;;4970888;28;20210;-75
2022/06/10 08:01:40;;;;;;;7.50;4.00;;;20.90;1.00;;;;;;4971907;28;20172;-75
2022/06/10 08:04:09;;;;;;;10.77;3.60;;;20.80;1.00;;;;;;4969873;28;20539;-74
2022/06/10 08:06:39;;;;;;;7.13;3.70;;;20.90;1.00;;;;;;4979295;28;20473;-75
2022/06/10 08:09:05;;;;;;;7.43;3.30;;;21.00;1.00;;;;;;4984752;28;20805;-75
2022/06/10 08:11:31;;;;;;;8.40;3.20;;;21.50;1.00;;;;;;4969887;28;20442;-75
2022/06/10 08:13:56;;;;;;;8.60;3.30;;;21.90;1.00;;;;;;4972338;28;20224;-74
2022/06/10 08:16:23;;;;;;;8.10;3.23;;;22.20;1.00;;;;;;4963642;28;20234;-75
2022/06/10 08:18:49;;;;;;;5.87;3.23;;;22.40;1.00;;;;;;4969357;28;20208;-74
2022/06/10 08:24:01;;;;;;;4.10;3.07;;;22.30;1.00;;;;;;4971498;28;20206;-75
2022/06/10 08:26:27;;;;;;;9.10;3.80;;;22.60;1.00;;;;;;4971407;28;20433;-75
2022/06/10 08:28:54;;;;;;;11.97;3.30;;;22.70;1.00;;;;;;4969261;28;20490;-76
2022/06/10 08:31:20;;;;;;;6.90;3.20;;;22.70;1.00;;;;;;4969558;28;20407;-74
2022/06/10 08:33:46;;;;;;;7.57;3.50;;;22.50;1.00;;;;;;4967609;28;20446;-77
2022/06/10 08:36:13;;;;;;;5.17;3.07;;;22.60;1.00;;;;;;4971048;28;20450;-75
2022/06/10 08:38:42;;;;;;;7.50;3.30;;;22.70;1.00;;;;;;4970713;28;20199;-76
2022/06/10 08:41:19;;;;;;;6.33;3.30;;;22.80;1.00;;;;;;4970677;28;20434;-75
2022/06/10 08:43:53;;;;;;;7.50;3.10;;;23.30;1.00;;;;;;4968992;28;20560;-75
2022/06/10 08:46:46;;;;;;;9.70;3.10;;;23.80;1.00;;;;;;4970387;28;20435;-76
2022/06/10 08:49:45;;;;;;;9.47;3.90;;;23.90;1.00;;;;;;4950947;29;20511;-76
2022/06/10 08:52:36;;;;;;;5.90;2.93;;;24.00;1.00;;;;;;4950573;29;20859;-75
2022/06/10 08:55:25;;;;;;;4.87;3.20;;;24.00;1.00;;;;;;4951505;29;20404;-76
2022/06/10 08:57:51;;;;;;;5.53;3.10;;;24.40;1.00;;;;;;4951444;29;20816;-75
2022/06/10 09:00:28;;;;;;;6.83;3.73;;;24.20;1.00;;;;;;4951820;29;20419;-76
2022/06/10 09:03:12;;;;;;;6.27;3.10;;;24.70;1.00;;;;;;4950020;29;20658;-75
2022/06/10 09:05:46;;;;;;;5.73;3.20;;;25.20;1.00;;;;;;4951055;29;20808;-74
2022/06/10 09:08:22;;;;;;;6.10;3.30;;;25.60;1.00;;;;;;4950857;29;20876;-75
2022/06/10 09:11:20;;;;;;;8.57;3.00;;;26.30;1.00;;;;;;4951490;29;20463;-75
2022/06/10 09:13:57;;;;;;;6.17;2.93;;;27.70;1.00;;;;;;4954329;28;20418;-76
2022/06/10 09:16:43;;;;;;;7.80;2.90;;;28.70;1.00;;;;;;4961372;28;20434;-75
2022/06/10 09:19:15;;;;;;;5.77;3.27;;;28.90;1.00;;;;;;4969714;28;20413;-76
2022/06/10 09:21:44;;;;;;;9.37;2.80;;;29.60;1.00;;;;;;4968605;28;20175;-77
2022/06/10 09:24:35;;;;;;;8.40;2.90;;;30.70;1.00;;;;;;4968961;28;20539;-77
2022/06/10 09:27:17;;;;;;;7.15;2.90;;;31.30;1.00;;;;;;4960414;28;20207;-77
2022/06/10 09:29:42;;;;;;;9.35;3.03;;;31.00;1.00;;;;;;4970149;28;20222;-77
2022/06/10 09:32:30;;;;;;;4.65;2.38;;;31.40;1.00;;;;;;4968032;28;20215;-77
2022/06/10 09:34:55;;;;;;;6.03;3.05;;;32.50;1.00;;;;;;4948858;28;20282;-77
2022/06/10 09:37:24;;;;;;;5.78;2.50;;;32.10;1.00;;;;;;4968425;28;20653;-77
2022/06/10 09:43:07;;;;;;;5.47;2.50;;;33.10;1.00;;;;;;4969763;28;20178;-76
2022/06/10 09:45:58;;;;;;;9.48;2.20;;;33.90;1.00;;;;;;4961328;28;20614;-77
2022/06/10 09:48:50;;;;;;;10.38;2.28;;;34.00;1.00;;;;;;4969277;28;20214;-77
2022/06/10 09:51:54;;;;;;;5.22;2.63;;;33.50;1.00;;;;;;4969148;28;20183;-77
2022/06/10 09:54:42;;;;;;;7.47;3.00;;;33.80;1.00;;;;;;4969788;28;20175;-77
2022/06/10 09:57:16;;;;;;;8.73;2.70;;;34.30;1.00;;;;;;4969435;28;20278;-77
2022/06/10 10:00:05;;;;;;;8.63;2.00;;;35.20;1.00;;;;;;4970117;28;20602;-77
2022/06/10 10:02:49;;;;;;;5.38;2.45;;;36.40;1.00;;;;;;4968943;28;20182;-78
2022/06/10 10:05:35;;;;;;;5.57;2.60;;;36.30;1.00;;;;;;4969242;28;20195;-78
2022/06/10 10:08:19;;;;;;;4.63;2.03;;;36.00;1.00;;;;;;4961464;28;20980;-77
2022/06/10 10:10:51;;;;;;;7.10;2.50;;;35.70;1.00;;;;;;4969832;28;20282;-76
2022/06/10 10:13:29;;;;;;;7.60;2.50;;;35.70;1.00;;;;;;4967647;28;20262;-78
2022/06/10 10:16:11;;;;;;;4.82;2.30;;;36.10;1.00;;;;;;4961948;28;21246;-78
2022/06/10 10:18:49;;;;;;;4.20;2.20;;;36.90;1.00;;;;;;4971637;28;20482;-78
2022/06/10 10:21:31;;;;;;;6.88;2.42;;;37.60;1.00;;;;;;4968754;28;20222;-76
2022/06/10 10:23:58;;;;;;;6.13;2.47;;;37.40;1.00;;;;;;4968687;28;20175;-77
2022/06/10 10:26:42;;;;;;;6.25;2.20;;;37.70;1.00;;;;;;4969874;28;20614;-78
2022/06/10 10:29:21;;;;;;;5.10;1.85;;;37.50;1.00;;;;;;4969770;28;20195;-77
2022/06/10 10:32:26;;;;;;;7.18;2.20;;;37.20;1.00;;;;;;4967858;28;20175;-77
2022/06/10 10:34:58;;;;;;;3.83;2.05;;;36.80;1.00;;;;;;4911979;29;20227;-78
2022/06/10 10:37:26;;;;;;;8.35;2.00;;;36.80;1.00;;;;;;4962898;28;20768;-77
2022/06/10 10:39:55;;;;;;;6.07;2.10;;;36.90;1.00;;;;;;4969616;28;20203;-78
2022/06/10 10:42:30;;;;;;;5.35;2.10;;;37.50;1.00;;;;;;4968372;28;20226;-76
2022/06/10 10:45:04;;;;;;;7.38;2.58;;;37.70;1.00;;;;;;4976591;28;20559;-77
2022/06/10 10:47:32;;;;;;;5.90;2.05;;;37.20;1.00;;;;;;4953683;28;20484;-77
2022/06/10 10:50:03;;;;;;;6.03;2.20;;;37.40;1.00;;;;;;4949529;29;20242;-78
2022/06/10 10:52:36;;;;;;;6.18;2.10;;;38.10;1.00;;;;;;4949110;29;20176;-78
2022/06/10 10:55:18;;;;;;;5.25;2.47;;;38.00;1.00;;;;;;4950132;29;20184;-76
2022/06/10 10:58:04;;;;;;;4.97;2.67;;;35.90;1.00;;;;;;4949974;29;20192;-76
2022/06/10 11:00:39;;;;;;;7.00;2.42;;;33.60;1.00;;;;;;4950365;29;20226;-77
2022/06/10 11:03:05;;;;;;;4.20;2.13;;;31.90;1.00;;;;;;4948661;29;20657;-77
2022/06/10 11:05:47;;;;;;;7.72;2.50;;;30.50;1.00;;;;;;4949179;28;20223;-77
2022/06/10 11:08:19;;;;;;;8.00;2.38;;;30.20;1.00;;;;;;4951855;28;20171;-77
2022/06/10 11:11:17;;;;;;;4.03;1.80;;;32.40;1.00;;;;;;4953672;29;20623;-77
2022/06/10 11:13:52;;;;;;;4.70;2.10;;;35.00;1.00;;;;;;4957408;28;20216;-76
2022/06/10 11:16:26;;;;;;;7.07;2.20;;;36.80;1.00;;;;;;4964844;28;20618;-78
2022/06/10 11:19:01;;;;;;;11.32;2.55;;;36.30;1.00;;;;;;4970522;28;20599;-77
2022/06/10 11:21:27;;;;;;;8.63;2.67;;;34.00;1.00;;;;;;4971722;28;20175;-77
2022/06/10 11:23:56;;;;;;;4.70;2.10;;;32.00;1.00;;;;;;4972134;28;20176;-76
2022/06/10 11:26:22;;;;;;;4.70;2.30;;;30.80;1.00;;;;;;4968899;28;20430;-76
2022/06/10 11:28:58;;;;;;;3.83;2.15;;;31.80;1.00;;;;;;4970643;28;20191;-77
2022/06/10 11:31:28;;;;;;;5.15;1.95;;;34.00;1.00;;;;;;4971963;28;20330;-77
2022/06/10 11:33:57;;;;;;;3.63;1.70;;;35.80;1.00;;;;;;4971617;28;20182;-77
2022/06/10 11:36:33;;;;;;;3.72;1.60;;;36.00;1.00;;;;;;4970482;28;20334;-77
2022/06/10 11:39:31;;;;;;;4.00;1.60;;;35.10;1.00;;;;;;4971903;28;20171;-77
2022/06/10 11:42:08;;;;;;;4.03;2.08;;;33.20;1.00;;;;;;4971874;28;20171;-76
2022/06/10 11:44:54;;;;;;;7.20;2.08;;;34.10;1.00;;;;;;4970519;28;20270;-77
2022/06/10 11:47:27;;;;;;;4.75;2.13;;;35.80;1.00;;;;;;4966538;28;20203;-77
2022/06/10 11:50:02;;;;;;;5.07;2.05;;;36.70;1.00;;;;;;4971150;28;20211;-78
2022/06/10 11:52:35;;;;;;;5.80;1.83;;;36.10;1.00;;;;;;4970974;28;20186;-77
2022/06/10 11:55:14;;;;;;;3.28;1.77;;;35.90;1.00;;;;;;4970806;28;20182;-77
2022/06/10 12:00:58;;;;;;;4.53;1.83;;;32.50;1.00;;;;;;4972193;28;20302;-78
2022/06/10 12:03:32;;;;;;;4.47;1.70;;;34.20;1.00;;;;;;4970653;28;20262;-77
2022/06/10 12:06:09;;;;;;;4.78;1.80;;;36.00;1.00;;;;;;4969864;28;20301;-77
2022/06/10 12:09:15;;;;;;;3.05;1.80;;;37.60;1.00;;;;;;4971193;28;20182;-76
2022/06/10 12:12:01;;;;;;;4.85;1.88;;;37.70;1.00;;;;;;4971319;28;20250;-78
2022/06/10 12:14:32;;;;;;;4.80;1.83;;;37.80;1.00;;;;;;4971617;28;20175;-77
2022/06/10 12:17:02;;;;;;;4.38;1.52;;;38.30;1.00;;;;;;4962072;28;20282;-78
2022/06/10 12:19:34;;;;;;;7.13;2.10;;;39.10;1.00;;;;;;4970123;28;20195;-76
2022/06/10 12:22:00;;;;;;;4.53;1.65;;;39.20;1.00;;;;;;4973598;28;20638;-77
2022/06/10 12:24:26;;;;;;;3.67;1.80;;;39.10;1.00;;;;;;4969111;28;20529;-76
2022/06/10 12:27:00;;;;;;;3.85;1.95;;;38.30;1.00;;;;;;4971331;28;20191;-78
2022/06/10 12:29:53;;;;;;;3.47;1.60;;;38.40;1.00;;;;;;4971606;28;20203;-77
2022/06/10 12:32:28;;;;;;;5.35;1.90;;;39.30;1.00;;;;;;4970420;28;20195;-78
2022/06/10 12:35:23;;;;;;;2.45;1.58;;;39.30;1.00;;;;;;4970784;28;20168;-78
2022/06/10 12:38:01;;;;;;;3.55;1.73;;;38.70;1.00;;;;;;4970754;28;20269;-78
2022/06/10 12:40:31;;;;;;;3.65;1.65;;;39.40;1.00;;;;;;4971622;28;20167;-77
2022/06/10 12:43:08;;;;;;;6.70;2.20;;;39.40;1.00;;;;;;4967961;28;20180;-78
2022/06/10 12:45:45;;;;;;;2.95;1.90;;;38.20;1.00;;;;;;4978905;28;20252;-77
2022/06/10 12:48:38;;;;;;;6.20;1.90;;;38.10;1.00;;;;;;4950950;29;20198;-78
2022/06/10 12:51:13;;;;;;;8.60;2.00;;;37.10;1.00;;;;;;4950630;28;20240;-76
2022/06/10 12:53:51;;;;;;;4.15;1.95;;;34.60;1.00;;;;;;4951328;29;20176;-76
2022/06/10 12:56:23;;;;;;;5.03;2.00;;;32.50;1.00;;;;;;4951642;28;20219;-76
2022/06/10 12:58:56;;;;;;;4.35;1.77;;;31.40;1.00;;;;;;4951585;28;20172;-76
2022/06/10 13:01:23;;;;;;;3.63;1.80;;;31.80;1.00;;;;;;4951056;29;20259;-76
2022/06/10 13:03:56;;;;;;;4.22;1.50;;;34.30;1.00;;;;;;4950488;28;20176;-75
2022/06/10 13:06:29;;;;;;;4.30;2.03;;;36.00;1.00;;;;;;4950752;28;20294;-77
2022/06/10 13:09:20;;;;;;;3.60;1.55;;;37.30;1.00;;;;;;4950891;28;20180;-76
2022/06/10 13:11:52;;;;;;;4.00;1.60;;;38.20;1.00;;;;;;4950847;28;20528;-76
2022/06/10 13:14:30;;;;;;;6.68;1.80;;;37.80;1.00;;;;;;4959997;28;20297;-76
2022/06/10 13:16:58;;;;;;;5.03;1.80;;;35.80;1.00;;;;;;4962319;28;20615;-76
2022/06/10 13:20:00;;;;;;;6.65;1.85;;;34.50;1.00;;;;;;4969238;28;20186;-77
2022/06/10 13:22:33;;;;;;;3.20;1.55;;;36.30;1.00;;;;;;4969156;28;20193;-76
2022/06/10 13:24:59;;;;;;;6.70;1.55;;;36.70;1.00;;;;;;4970294;28;20172;-76
2022/06/10 13:27:28;;;;;;;2.78;1.42;;;37.00;1.00;;;;;;4969911;28;20705;-76
2022/06/10 13:30:16;;;;;;;2.55;1.40;;;37.60;1.00;;;;;;4969972;28;20203;-76
2022/06/10 13:32:44;;;;;;;5.07;1.80;;;38.40;1.00;;;;;;4967353;28;20175;-77
2022/06/10 13:35:16;;;;;;;4.60;1.50;;;38.10;1.00;;;;;;4969778;28;20642;-76